West Warwick, Rhode Island
Current Conditions -  °F | °C
As of 4:51 PM on Friday 28 Nov 2014 (Local Time) from KPVD Reporting Station
Few Clouds Few Clouds  
Wind Chill: 25°   Ceiling: Unl
Heat Index: 32°   Visibility: 10mi
Dew Point: 15°   Wind: 8mph
Humidity: 50%   Direction: 330°NNW
Pressure: 30.14"   Gusts: NA
Location:  41.71°N, 71.52°W
Report Text: KPVD 282151Z 33007KT 10SM FEW045 FEW075 00/M09 A3014 RMK AO2 SLP206 T00001094
Loading
Personal Weather Stations






























Interactive Weather Map New forecast layout! Learn more

10-Day Weather Forecast

Advertisements
Track Severe Weather on mobile